createdAt,value
2022-10-14T00:01:05.253Z,78.50
2022-10-14T00:03:06.841Z,76.50
2022-10-14T00:05:09.970Z,76.95
2022-10-14T00:07:11.560Z,75.63
2022-10-14T00:09:13.137Z,72.47
2022-10-14T00:11:17.837Z,74.30
2022-10-14T00:13:19.337Z,69.20
2022-10-14T00:15:20.954Z,73.65
2022-10-14T00:17:23.335Z,67.72
2022-10-14T00:19:25.054Z,71.32
2022-10-14T00:21:27.581Z,77.50
2022-10-14T00:23:29.138Z,84.70
2022-10-14T00:25:30.947Z,82.70
2022-10-14T00:27:32.592Z,74.40
2022-10-14T00:29:34.182Z,75.10
2022-10-14T00:31:36.049Z,69.75
2022-10-14T00:33:37.518Z,72.30
2022-10-14T00:35:39.123Z,72.72
2022-10-14T00:37:40.602Z,74.35
2022-10-14T00:39:42.153Z,78.88
2022-10-14T00:41:44.015Z,74.43
2022-10-14T00:44:28.568Z,75.32
2022-10-14T00:46:36.597Z,76.15
2022-10-14T00:48:38.141Z,71.78
2022-10-14T00:50:43.424Z,78.88
2022-10-14T00:52:45.216Z,72.38
2022-10-14T00:54:56.720Z,81.70
2022-10-14T00:56:58.720Z,78.13
2022-10-14T00:59:03.736Z,80.15
2022-10-14T01:01:05.568Z,75.72
2022-10-14T01:03:09.979Z,82.90
2022-10-14T01:05:14.573Z,76.68
2022-10-14T01:07:24.880Z,78.53
2022-10-14T01:09:33.866Z,81.63
2022-10-14T01:11:35.712Z,83.13
2022-10-14T01:13:42.861Z,73.32
2022-10-14T01:16:09.796Z,72.85
2022-10-14T01:18:23.879Z,74.43
2022-10-14T01:20:43.880Z,75.13
2022-10-14T01:22:58.439Z,76.78
2022-10-14T01:25:08.480Z,74.07
2022-10-14T01:27:24.637Z,73.35
2022-10-14T01:30:04.013Z,80.63
2022-10-14T01:32:11.484Z,78.13
2022-10-14T01:34:17.678Z,75.13
2022-10-14T01:36:29.581Z,76.15
2022-10-14T01:38:44.129Z,69.47
2022-10-14T01:41:10.540Z,69.43
2022-10-14T01:43:13.523Z,73.07
2022-10-14T01:45:20.095Z,76.57
2022-10-14T01:47:23.654Z,77.18
2022-10-14T01:49:43.708Z,76.43
2022-10-14T01:51:51.094Z,74.93
2022-10-14T01:54:05.465Z,78.10
2022-10-14T01:56:09.698Z,85.40
2022-10-14T01:58:13.621Z,70.25
2022-10-14T02:00:15.441Z,75.05
2022-10-14T02:02:17.543Z,76.53
2022-10-14T02:04:23.211Z,70.00
2022-10-14T02:06:32.539Z,74.63
2022-10-14T02:08:51.456Z,77.60
2022-10-14T02:11:07.429Z,52.23
2022-10-14T02:13:18.059Z,77.60
2022-10-14T02:15:19.472Z,70.00
2022-10-14T02:17:32.728Z,71.55
2022-10-14T02:19:58.831Z,68.80
2022-10-14T02:22:23.105Z,64.40
2022-10-14T02:24:47.780Z,66.50
2022-10-14T02:26:53.930Z,71.65
2022-10-14T02:28:56.939Z,66.20
2022-10-14T02:31:03.597Z,71.88
2022-10-14T02:33:05.711Z,65.43
2022-10-14T02:35:10.488Z,68.68
2022-10-14T02:37:13.632Z,71.45
2022-10-14T02:39:20.626Z,70.15
2022-10-14T02:41:26.685Z,64.28
2022-10-14T02:43:28.175Z,67.22
2022-10-14T02:45:29.720Z,71.30
2022-10-14T02:47:31.242Z,74.97
2022-10-14T02:49:32.724Z,63.53
2022-10-14T02:51:34.199Z,68.85
2022-10-14T02:53:35.687Z,68.38
2022-10-14T02:55:37.255Z,67.80
2022-10-14T02:57:38.713Z,64.07
2022-10-14T02:59:40.210Z,61.63
2022-10-14T03:01:42.016Z,54.97
2022-10-14T03:03:43.523Z,57.40
2022-10-14T03:05:45.108Z,60.80
2022-10-14T03:07:46.581Z,56.80
2022-10-14T03:09:48.112Z,57.35
2022-10-14T03:11:49.720Z,66.25
2022-10-14T03:13:51.230Z,59.25
2022-10-14T03:15:52.765Z,62.00
2022-10-14T03:17:54.303Z,60.17
2022-10-14T03:19:55.757Z,62.53
2022-10-14T03:21:57.238Z,70.72
2022-10-14T03:23:59.109Z,70.20
2022-10-14T03:26:00.573Z,74.53
2022-10-14T03:28:02.078Z,73.22
2022-10-14T03:30:04.088Z,61.80
2022-10-14T03:32:05.655Z,77.05
2022-10-14T03:34:07.338Z,74.18
2022-10-14T03:36:09.056Z,71.20
2022-10-14T03:38:10.518Z,71.22
2022-10-14T03:40:12.483Z,63.40
2022-10-14T03:42:13.958Z,64.78
2022-10-14T03:44:15.465Z,63.17
2022-10-14T03:46:16.985Z,63.42
2022-10-14T03:48:18.506Z,67.03
2022-10-14T03:50:20.089Z,63.15
2022-10-14T03:52:21.732Z,67.60
2022-10-14T03:54:23.518Z,64.88
2022-10-14T03:56:25.009Z,64.80
2022-10-14T03:58:26.649Z,65.60
2022-10-14T04:00:28.130Z,67.72
2022-10-14T04:02:29.597Z,63.05
2022-10-14T04:04:31.053Z,64.18
2022-10-14T04:06:32.582Z,67.25
2022-10-14T04:08:34.059Z,67.82
2022-10-14T04:10:35.607Z,64.80
2022-10-14T04:12:37.143Z,68.90
2022-10-14T04:14:38.632Z,63.40
2022-10-14T04:16:40.131Z,68.88
2022-10-14T04:18:41.658Z,61.17
2022-10-14T04:20:43.342Z,64.00
2022-10-14T04:22:45.048Z,69.45
2022-10-14T04:24:46.626Z,67.55
2022-10-14T04:26:51.384Z,65.50
2022-10-14T04:28:53.056Z,65.65
2022-10-14T04:30:54.560Z,66.45
2022-10-14T04:32:56.056Z,63.75
2022-10-14T04:34:57.661Z,66.00
2022-10-14T04:36:59.128Z,67.20
2022-10-14T04:39:00.609Z,70.65
2022-10-14T04:41:02.256Z,67.55
2022-10-14T04:43:03.719Z,78.05
2022-10-14T04:45:05.614Z,70.05
2022-10-14T04:47:07.163Z,73.43
2022-10-14T04:49:09.383Z,69.68
2022-10-14T04:51:10.877Z,73.90
2022-10-14T04:53:13.874Z,81.30
2022-10-14T04:55:16.070Z,81.13
2022-10-14T04:57:17.552Z,85.07
2022-10-14T04:59:19.069Z,76.30
2022-10-14T05:01:20.630Z,74.07
2022-10-14T05:03:22.379Z,75.30
2022-10-14T05:05:23.851Z,77.28
2022-10-14T05:07:25.368Z,73.28
2022-10-14T05:09:27.620Z,80.38
2022-10-14T05:11:29.120Z,73.75
2022-10-14T05:13:31.031Z,78.63
2022-10-14T05:15:33.033Z,89.32
2022-10-14T05:17:36.427Z,97.47
2022-10-14T05:19:37.969Z,97.70
2022-10-14T05:21:39.417Z,87.68
2022-10-14T05:23:40.881Z,85.22
2022-10-14T05:25:42.542Z,81.97
2022-10-14T05:27:44.136Z,83.88
2022-10-14T05:29:45.905Z,91.15
2022-10-14T05:31:47.418Z,88.97
2022-10-14T05:33:48.932Z,74.05
2022-10-14T05:35:59.422Z,73.97
2022-10-14T05:38:04.244Z,70.93
2022-10-14T05:40:06.723Z,67.57
2022-10-14T05:42:08.221Z,75.72
2022-10-14T05:44:11.653Z,75.63
2022-10-14T05:46:13.169Z,74.10
2022-10-14T05:48:14.720Z,74.93
2022-10-14T05:50:16.243Z,73.50
2022-10-14T05:52:17.976Z,91.22
2022-10-14T05:54:19.449Z,83.35
2022-10-14T05:56:20.952Z,74.18
2022-10-14T05:58:22.413Z,66.40
2022-10-14T06:00:25.912Z,71.43
2022-10-14T06:02:27.716Z,70.20
2022-10-14T06:04:29.447Z,75.07
2022-10-14T06:06:31.137Z,66.65
2022-10-14T06:08:32.617Z,66.93
2022-10-14T06:10:35.432Z,62.92
2022-10-14T06:12:37.850Z,66.40
2022-10-14T06:14:39.367Z,63.55
2022-10-14T06:16:41.470Z,72.38
2022-10-14T06:18:42.956Z,70.22
2022-10-14T06:20:44.462Z,63.45
2022-10-14T06:22:46.018Z,69.78
2022-10-14T06:24:47.557Z,64.70
2022-10-14T06:26:49.241Z,62.13
2022-10-14T06:28:50.834Z,97.55
2022-10-14T06:30:53.807Z,60.55
2022-10-14T06:32:55.294Z,58.53
2022-10-14T06:34:56.831Z,54.28
2022-10-14T06:37:02.216Z,60.15
2022-10-14T06:39:05.349Z,60.65
2022-10-14T06:41:07.020Z,57.42
2022-10-14T06:43:08.546Z,63.70
2022-10-14T06:45:10.282Z,56.63
2022-10-14T06:47:11.881Z,59.63
2022-10-14T06:49:13.381Z,54.00
2022-10-14T06:51:14.845Z,57.78
2022-10-14T06:53:16.377Z,52.47
2022-10-14T06:55:18.051Z,55.53
2022-10-14T06:57:19.502Z,62.95
2022-10-14T06:59:21.110Z,60.25
2022-10-14T07:01:23.475Z,63.88
2022-10-14T07:03:25.478Z,86.70
2022-10-14T07:05:27.019Z,81.22
2022-10-14T07:07:28.733Z,104.63
2022-10-14T07:09:30.390Z,150.00
2022-10-14T07:11:31.932Z,58.50
2022-10-14T07:13:37.840Z,56.28
2022-10-14T07:15:39.910Z,55.50
2022-10-14T07:17:41.378Z,59.45
2022-10-14T07:19:42.896Z,70.88
2022-10-14T07:21:46.609Z,117.90
2022-10-14T07:23:48.145Z,186.05
2022-10-14T07:25:49.589Z,524.00
2022-10-14T07:27:53.383Z,361.25
2022-10-14T07:29:54.864Z,282.20
2022-10-14T07:31:56.733Z,273.70
2022-10-14T07:33:58.350Z,101.50
2022-10-14T07:36:15.060Z,486.98
2022-10-14T07:38:18.895Z,221.95
2022-10-14T07:40:20.612Z,265.30
2022-10-14T07:42:22.080Z,119.40
2022-10-14T07:44:27.259Z,158.27
2022-10-14T07:46:32.374Z,366.42
2022-10-14T07:48:52.204Z,98.07
2022-10-14T07:50:56.973Z,117.97
2022-10-14T07:53:01.157Z,236.05
2022-10-14T07:55:04.292Z,216.55
2022-10-14T07:57:05.864Z,109.47
2022-10-14T07:59:07.915Z,59.97
2022-10-14T08:01:09.399Z,80.80
2022-10-14T08:03:10.890Z,51.92
2022-10-14T08:05:36.532Z,97.75
2022-10-14T08:07:33.829Z,104.13
2022-10-14T08:09:36.731Z,51.72
2022-10-14T08:11:38.389Z,58.25
2022-10-14T08:13:43.520Z,47.42
2022-10-14T08:15:47.579Z,41.80
2022-10-14T08:17:49.033Z,82.00
2022-10-14T08:19:51.140Z,48.60
2022-10-14T08:21:53.397Z,76.03
2022-10-14T08:23:55.131Z,43.83
2022-10-14T08:25:56.591Z,47.78
2022-10-14T08:27:58.800Z,39.35
2022-10-14T08:30:00.423Z,41.20
2022-10-14T08:32:02.066Z,47.72
2022-10-14T08:34:03.619Z,40.17
2022-10-14T08:36:05.473Z,40.83
2022-10-14T08:38:07.217Z,43.28
2022-10-14T08:40:15.320Z,38.75
2022-10-14T08:42:44.206Z,61.17
2022-10-14T08:45:10.358Z,43.17
2022-10-14T08:47:16.580Z,43.60
2022-10-14T08:49:25.759Z,66.22
2022-10-14T08:51:30.601Z,41.03
2022-10-14T08:53:43.865Z,38.97
2022-10-14T08:55:52.700Z,49.58
2022-10-14T08:58:17.413Z,47.55
2022-10-14T09:00:20.329Z,46.53
2022-10-14T09:02:46.350Z,43.55
2022-10-14T09:04:47.883Z,36.75
2022-10-14T09:06:51.564Z,65.28
2022-10-14T09:08:57.342Z,52.20
2022-10-14T09:10:59.339Z,43.80
2022-10-14T09:13:27.580Z,39.22
2022-10-14T09:15:40.291Z,61.40
2022-10-14T09:18:26.493Z,37.55
2022-10-14T09:20:28.306Z,48.22
2022-10-14T09:22:30.100Z,40.88
2022-10-14T09:24:37.511Z,73.38
2022-10-14T09:26:44.033Z,48.35
2022-10-14T09:28:46.302Z,45.10
2022-10-14T09:30:47.973Z,74.57
2022-10-14T09:32:54.650Z,53.55
2022-10-14T09:34:58.087Z,33.95
2022-10-14T09:37:26.049Z,41.75
2022-10-14T09:39:28.286Z,39.58
2022-10-14T09:41:31.333Z,36.58
2022-10-14T09:43:32.877Z,39.05
2022-10-14T09:46:08.132Z,54.60
2022-10-14T09:48:17.175Z,38.97
2022-10-14T09:50:27.749Z,30.03
2022-10-14T09:52:30.344Z,31.10
2022-10-14T09:54:33.028Z,44.40
2022-10-14T09:56:41.914Z,33.17
2022-10-14T09:58:52.418Z,34.95
2022-10-14T10:00:57.531Z,23.20
2022-10-14T10:02:59.206Z,26.35
2022-10-14T10:05:12.720Z,22.80
2022-10-14T10:07:33.215Z,23.42
2022-10-14T10:09:35.076Z,26.95
2022-10-14T10:11:38.776Z,22.75
2022-10-14T10:13:44.506Z,23.65
2022-10-14T10:15:57.851Z,26.02
2022-10-14T10:17:59.431Z,27.55
2022-10-14T10:20:19.444Z,26.48
2022-10-14T10:22:31.693Z,26.90
2022-10-14T10:24:33.223Z,27.70
2022-10-14T10:26:34.933Z,29.50
2022-10-14T10:28:36.436Z,25.58
2022-10-14T10:30:59.993Z,30.95
2022-10-14T10:33:16.420Z,25.63
2022-10-14T10:35:26.941Z,32.25
2022-10-14T10:37:31.656Z,28.70
2022-10-14T10:39:56.057Z,43.65
2022-10-14T10:42:23.274Z,29.02
2022-10-14T10:44:45.914Z,38.58
2022-10-14T10:47:16.037Z,32.60
2022-10-14T10:49:38.528Z,29.52
2022-10-14T10:51:54.532Z,26.92
2022-10-14T10:54:01.431Z,24.63
2022-10-14T10:56:38.786Z,23.02
2022-10-14T10:58:56.551Z,23.25
2022-10-14T11:01:04.066Z,22.80
2022-10-14T11:03:24.664Z,28.92
2022-10-14T11:05:51.634Z,25.20
2022-10-14T11:08:18.921Z,26.88
2022-10-14T11:10:48.175Z,21.33
2022-10-14T11:12:57.402Z,27.98
2022-10-14T11:15:37.934Z,23.80
2022-10-14T11:17:57.744Z,22.48
2022-10-14T11:22:38.676Z,22.73
2022-10-14T11:24:58.820Z,22.13
2022-10-14T11:27:00.429Z,27.33
2022-10-14T11:29:20.439Z,30.33
2022-10-14T11:32:08.588Z,22.15
2022-10-14T11:34:37.528Z,76.97
2022-10-14T11:36:44.903Z,61.58
2022-10-14T11:39:25.190Z,22.73
2022-10-14T11:41:54.548Z,25.13
2022-10-14T11:44:27.268Z,25.83
2022-10-14T11:46:34.250Z,29.52
2022-10-14T11:48:42.739Z,23.75
2022-10-14T11:50:49.366Z,24.70
2022-10-14T11:53:13.329Z,24.88
2022-10-14T11:55:29.150Z,24.50
2022-10-14T11:57:41.626Z,24.98
2022-10-14T12:00:00.005Z,24.67
2022-10-14T12:02:12.220Z,29.63
2022-10-14T12:04:27.392Z,27.48
2022-10-14T12:06:43.622Z,24.95
2022-10-14T12:08:55.640Z,26.77
2022-10-14T12:11:20.549Z,28.77
2022-10-14T12:13:31.917Z,25.45
2022-10-14T12:15:36.147Z,25.02
2022-10-14T12:18:00.389Z,31.08
2022-10-14T12:20:19.694Z,29.92
2022-10-14T12:22:26.759Z,29.35
2022-10-14T12:24:35.825Z,25.10
2022-10-14T12:26:47.227Z,35.10
2022-10-14T12:28:51.853Z,37.65
2022-10-14T12:31:22.608Z,37.05
2022-10-14T12:33:24.172Z,30.85
2022-10-14T12:35:44.434Z,26.00
2022-10-14T12:37:50.333Z,30.60
2022-10-14T12:40:13.331Z,30.00
2022-10-14T12:42:15.773Z,41.08
2022-10-14T12:44:19.686Z,24.15
2022-10-14T12:46:21.271Z,30.63
2022-10-14T12:48:24.983Z,30.52
2022-10-14T12:50:34.511Z,58.95
2022-10-14T12:52:38.671Z,39.50
2022-10-14T12:54:47.680Z,29.02
2022-10-14T12:57:03.323Z,28.37
2022-10-14T12:59:09.089Z,33.10
2022-10-14T13:01:20.099Z,35.22
2022-10-14T13:03:27.387Z,30.35
2022-10-14T13:05:44.709Z,31.92
2022-10-14T13:07:48.941Z,42.97
2022-10-14T13:09:58.774Z,30.75
2022-10-14T13:12:00.252Z,32.88
2022-10-14T13:14:01.921Z,36.58
2022-10-14T13:16:04.017Z,28.92
2022-10-14T13:18:39.748Z,31.83
2022-10-14T13:20:51.140Z,26.67
2022-10-14T13:22:53.374Z,40.75
2022-10-14T13:25:11.829Z,25.98
2022-10-14T13:27:30.065Z,33.67
2022-10-14T13:30:18.785Z,26.40
2022-10-14T13:32:49.481Z,32.75
2022-10-14T13:35:08.929Z,26.55
2022-10-14T13:37:27.985Z,26.05
2022-10-14T13:39:33.347Z,26.75
2022-10-14T13:41:37.939Z,27.33
2022-10-14T13:43:44.917Z,29.45
2022-10-14T13:45:54.808Z,31.70
2022-10-14T13:49:57.952Z,31.05
2022-10-14T13:52:04.557Z,24.75
2022-10-14T13:54:16.066Z,32.83
2022-10-14T13:56:31.731Z,33.10
2022-10-14T14:00:45.205Z,30.10
2022-10-14T14:02:50.360Z,40.15
2022-10-14T14:04:57.870Z,29.10
2022-10-14T14:07:18.705Z,30.33
2022-10-14T14:09:24.558Z,33.60
2022-10-14T14:11:33.430Z,34.97
2022-10-14T14:13:50.860Z,33.10
2022-10-14T14:17:57.090Z,32.90
2022-10-14T14:19:58.627Z,39.95
2022-10-14T14:22:24.675Z,31.27
2022-10-14T14:24:29.401Z,26.23
2022-10-14T14:26:36.743Z,30.33
2022-10-14T14:28:38.315Z,34.80
2022-10-14T14:30:39.943Z,34.42
2022-10-14T14:32:41.420Z,39.28
2022-10-14T14:34:46.242Z,37.03
2022-10-14T14:36:55.426Z,35.92
2022-10-14T14:39:01.988Z,149.35
2022-10-14T14:41:19.831Z,56.17
2022-10-14T14:43:21.558Z,94.30
2022-10-14T14:45:25.975Z,137.80
2022-10-14T14:47:28.273Z,82.28
2022-10-14T14:49:33.138Z,66.30
2022-10-14T14:51:37.603Z,37.55
2022-10-14T14:53:39.774Z,32.70
2022-10-14T14:56:10.397Z,249.48
2022-10-14T14:58:40.126Z,39.75
2022-10-14T15:00:47.727Z,32.55
2022-10-14T15:02:55.171Z,47.10
2022-10-14T15:05:09.329Z,39.50
2022-10-14T15:07:24.069Z,46.28
2022-10-14T15:09:48.704Z,45.95
2022-10-14T15:11:55.944Z,79.57
2022-10-14T15:14:00.251Z,53.25
2022-10-14T15:16:01.794Z,57.83
2022-10-14T15:18:19.966Z,59.40
2022-10-14T15:20:30.092Z,54.22
2022-10-14T15:22:43.627Z,59.05
2022-10-14T15:25:08.459Z,51.72
2022-10-14T15:27:42.977Z,43.53
2022-10-14T15:30:34.855Z,42.22
2022-10-14T15:32:36.639Z,55.13
2022-10-14T15:34:38.141Z,41.92
2022-10-14T15:36:39.601Z,50.97
2022-10-14T15:38:41.246Z,39.65
2022-10-14T15:40:43.692Z,45.70
2022-10-14T15:42:46.812Z,44.55
2022-10-14T15:44:48.358Z,47.72
2022-10-14T15:47:09.120Z,40.20
2022-10-14T15:49:17.038Z,45.85
2022-10-14T15:51:20.825Z,49.67
2022-10-14T15:53:22.272Z,54.70
2022-10-14T15:55:26.202Z,209.25
2022-10-14T15:57:27.675Z,114.13
2022-10-14T15:59:29.289Z,64.45
2022-10-14T16:01:38.271Z,70.22
2022-10-14T16:03:41.147Z,88.93
2022-10-14T16:05:43.041Z,83.90
2022-10-14T16:07:45.486Z,150.35
2022-10-14T16:09:47.248Z,147.93
2022-10-14T16:11:56.948Z,119.45
2022-10-14T16:13:58.623Z,208.93
2022-10-14T16:16:03.700Z,201.18
2022-10-14T16:18:05.322Z,329.10
2022-10-14T16:20:08.627Z,431.30
2022-10-14T16:22:10.642Z,449.77
2022-10-14T16:24:18.088Z,432.85
2022-10-14T16:26:20.450Z,272.88
2022-10-14T16:28:22.009Z,237.15
2022-10-14T16:30:23.592Z,218.60
2022-10-14T16:32:25.069Z,117.45
2022-10-14T16:34:26.646Z,94.32
2022-10-14T16:36:29.413Z,107.28
2022-10-14T16:38:30.884Z,87.35
2022-10-14T16:40:36.590Z,91.43
2022-10-14T16:42:38.712Z,127.18
2022-10-14T16:44:40.213Z,99.22
2022-10-14T16:47:00.012Z,125.22
2022-10-14T16:49:01.460Z,124.82
2022-10-14T16:51:03.375Z,141.90
2022-10-14T16:53:23.489Z,113.60
2022-10-14T16:55:25.008Z,107.32
2022-10-14T16:57:28.236Z,87.40
2022-10-14T16:59:30.652Z,72.53
2022-10-14T17:01:32.499Z,74.30
2022-10-14T17:03:34.103Z,79.00
2022-10-14T17:05:35.775Z,84.05
2022-10-14T17:07:37.404Z,76.80
2022-10-14T17:09:39.520Z,77.70
2022-10-14T17:11:42.390Z,61.60
2022-10-14T17:13:44.060Z,68.57
2022-10-14T17:15:45.525Z,74.95
2022-10-14T17:17:47.018Z,69.65
2022-10-14T17:19:50.637Z,69.90
2022-10-14T17:21:52.193Z,105.93
2022-10-14T17:23:53.872Z,89.93
2022-10-14T17:25:55.465Z,97.50
2022-10-14T17:27:56.960Z,134.07
2022-10-14T17:29:59.258Z,116.68
2022-10-14T17:32:00.718Z,124.38
2022-10-14T17:34:02.198Z,120.78
2022-10-14T17:36:06.508Z,116.20
2022-10-14T17:38:08.041Z,105.03
2022-10-14T17:40:09.906Z,101.57
2022-10-14T17:42:11.476Z,108.38
2022-10-14T17:44:13.184Z,122.88
2022-10-14T17:46:16.837Z,134.77
2022-10-14T17:48:18.369Z,206.57
2022-10-14T17:50:21.072Z,254.05
2022-10-14T17:52:22.602Z,165.75
2022-10-14T17:54:24.075Z,215.65
2022-10-14T17:56:27.388Z,182.07
2022-10-14T17:58:28.908Z,149.90
2022-10-14T18:00:30.581Z,139.02
2022-10-14T18:02:32.162Z,124.60
2022-10-14T18:04:33.918Z,326.95
2022-10-14T18:06:37.320Z,348.55
2022-10-14T18:08:40.332Z,359.67
2022-10-14T18:10:41.845Z,388.40
2022-10-14T18:12:43.458Z,221.27
2022-10-14T18:14:44.928Z,151.70
2022-10-14T18:16:47.737Z,143.80
2022-10-14T18:18:49.241Z,344.23
2022-10-14T18:20:57.107Z,286.42
2022-10-14T18:23:02.811Z,254.25
2022-10-14T18:25:05.185Z,233.88
2022-10-14T18:27:06.845Z,264.00
2022-10-14T18:29:08.781Z,269.05
2022-10-14T18:31:15.296Z,553.83
2022-10-14T18:33:16.867Z,396.13
2022-10-14T18:35:18.342Z,213.27
2022-10-14T18:37:19.827Z,285.38
2022-10-14T18:39:21.639Z,328.98
2022-10-14T18:41:23.780Z,240.63
2022-10-14T18:43:25.271Z,253.10
2022-10-14T18:45:26.752Z,201.20
2022-10-14T18:47:28.405Z,165.38
2022-10-14T18:49:29.920Z,197.18
2022-10-14T18:51:35.090Z,291.25
2022-10-14T18:53:38.998Z,345.00
2022-10-14T18:55:40.452Z,233.00
2022-10-14T18:57:41.926Z,202.35
2022-10-14T18:59:43.528Z,329.67
2022-10-14T19:01:46.828Z,387.10
2022-10-14T19:03:50.700Z,331.00
2022-10-14T19:05:52.294Z,282.77
2022-10-14T19:07:55.012Z,206.13
2022-10-14T19:09:57.944Z,259.88
2022-10-14T19:11:59.728Z,348.77
2022-10-14T19:14:05.085Z,356.20
2022-10-14T19:16:12.221Z,142.40
2022-10-14T19:18:13.981Z,203.82
2022-10-14T19:20:15.588Z,155.25
2022-10-14T19:22:17.284Z,194.68
2022-10-14T19:24:18.843Z,183.23
2022-10-14T19:26:22.852Z,288.35
2022-10-14T19:28:24.357Z,600.33
2022-10-14T19:30:26.297Z,405.60
2022-10-14T19:32:27.803Z,621.83
2022-10-14T19:34:29.437Z,496.45
2022-10-14T19:36:34.276Z,260.42
2022-10-14T19:38:37.591Z,549.67
2022-10-14T19:40:39.061Z,243.18
2022-10-14T19:42:40.552Z,214.35
2022-10-14T19:44:42.063Z,159.02
2022-10-14T19:46:44.976Z,235.85
2022-10-14T19:48:46.438Z,437.98
2022-10-14T19:50:47.985Z,460.67
2022-10-14T19:52:49.438Z,357.65
2022-10-14T19:54:50.926Z,441.95
2022-10-14T19:56:52.447Z,205.25
2022-10-14T19:58:56.481Z,175.07
2022-10-14T20:00:58.742Z,301.45
2022-10-14T20:03:00.300Z,715.30
2022-10-14T20:05:01.798Z,638.95
2022-10-14T20:07:03.315Z,552.70
2022-10-14T20:09:05.606Z,384.02
2022-10-14T20:11:09.309Z,311.60
2022-10-14T20:13:10.777Z,352.08
2022-10-14T20:15:12.317Z,282.73
2022-10-14T20:17:13.819Z,227.35
2022-10-14T20:19:15.303Z,303.25
2022-10-14T20:21:17.048Z,317.60
2022-10-14T20:23:19.444Z,328.55
2022-10-14T20:25:20.889Z,265.65
2022-10-14T20:27:22.597Z,216.93
2022-10-14T20:29:24.410Z,241.77
2022-10-14T20:31:25.898Z,252.35
2022-10-14T20:33:27.396Z,254.07
2022-10-14T20:37:35.297Z,208.52
2022-10-14T20:39:36.804Z,167.05
2022-10-14T20:41:38.284Z,193.63
2022-10-14T20:43:41.580Z,317.45
2022-10-14T20:45:43.061Z,254.15
2022-10-14T20:47:44.591Z,280.13
2022-10-14T20:49:46.037Z,273.45
2022-10-14T20:51:47.567Z,207.45
2022-10-14T20:53:49.022Z,173.32
2022-10-14T20:55:50.496Z,214.55
2022-10-14T20:57:51.940Z,234.18
2022-10-14T20:59:53.431Z,193.00
2022-10-14T21:01:54.974Z,172.15
2022-10-14T21:03:56.852Z,180.68
2022-10-14T21:06:04.640Z,181.55
2022-10-14T21:08:06.125Z,194.93
2022-10-14T21:10:08.202Z,210.93
2022-10-14T21:12:10.123Z,229.20
2022-10-14T21:14:11.589Z,268.95
2022-10-14T21:16:13.300Z,239.50
2022-10-14T21:18:14.846Z,214.80
2022-10-14T21:20:16.509Z,214.80
2022-10-14T21:22:17.992Z,218.45
2022-10-14T21:24:19.989Z,223.63
2022-10-14T21:26:21.557Z,247.90
2022-10-14T21:28:23.663Z,239.05
2022-10-14T21:30:25.235Z,256.52
2022-10-14T21:32:26.978Z,252.43
2022-10-14T21:34:30.108Z,254.18
2022-10-14T21:36:31.682Z,283.38
2022-10-14T21:38:33.344Z,265.52
2022-10-14T21:40:34.840Z,259.17
2022-10-14T21:42:36.323Z,260.00
2022-10-14T21:44:37.834Z,246.57
2022-10-14T21:46:39.331Z,271.25
2022-10-14T21:48:42.836Z,289.33
2022-10-14T21:50:44.332Z,326.48
2022-10-14T21:52:46.662Z,334.40
2022-10-14T21:54:48.441Z,329.30
2022-10-14T21:56:49.961Z,320.30
2022-10-14T21:58:51.761Z,414.65
2022-10-14T22:01:01.657Z,408.10
2022-10-14T22:03:03.227Z,253.35
2022-10-14T22:05:05.076Z,260.92
2022-10-14T22:07:07.119Z,253.82
2022-10-14T22:09:08.712Z,276.38
2022-10-14T22:11:21.588Z,285.67
2022-10-14T22:13:23.716Z,318.80
2022-10-14T22:15:26.239Z,320.35
2022-10-14T22:17:27.776Z,315.85
2022-10-14T22:19:29.384Z,336.20
2022-10-14T22:21:33.126Z,327.33
2022-10-14T22:23:35.330Z,314.73
2022-10-14T22:25:36.892Z,283.48
2022-10-14T22:27:38.341Z,283.10
2022-10-14T22:29:39.937Z,309.02
2022-10-14T22:31:41.702Z,314.42
2022-10-14T22:33:43.906Z,315.80
2022-10-14T22:35:45.537Z,344.90
2022-10-14T22:37:47.003Z,527.55
2022-10-14T22:39:48.513Z,509.27
2022-10-14T22:41:50.019Z,673.92
2022-10-14T22:43:53.594Z,641.10
2022-10-14T22:45:59.450Z,660.20
2022-10-14T22:48:00.912Z,626.75
2022-10-14T22:50:02.595Z,690.95
2022-10-14T22:52:04.180Z,494.67
2022-10-14T22:54:05.919Z,547.25
2022-10-14T22:56:09.783Z,537.95
2022-10-14T22:58:12.580Z,457.30
2022-10-14T23:00:14.951Z,437.42
2022-10-14T23:02:16.477Z,553.38
2022-10-14T23:04:17.996Z,576.67
2022-10-14T23:06:19.532Z,459.50
2022-10-14T23:08:21.215Z,452.25
2022-10-14T23:10:22.667Z,492.23
2022-10-14T23:12:24.516Z,349.30
2022-10-14T23:14:27.489Z,376.67
2022-10-14T23:16:29.059Z,373.90
2022-10-14T23:18:34.588Z,404.38
2022-10-14T23:20:36.214Z,436.85
2022-10-14T23:22:37.742Z,353.83
2022-10-14T23:24:40.039Z,344.58
2022-10-14T23:26:41.602Z,328.67
2022-10-14T23:28:47.314Z,406.67
2022-10-14T23:30:48.821Z,320.90
2022-10-14T23:32:50.336Z,328.88
2022-10-14T23:34:51.808Z,386.50
2022-10-14T23:38:59.966Z,364.52
2022-10-14T23:41:02.864Z,365.02
2022-10-14T23:43:04.655Z,325.48
2022-10-14T23:45:07.153Z,306.00
2022-10-14T23:47:08.637Z,275.35
2022-10-14T23:49:25.059Z,285.83
2022-10-14T23:51:27.302Z,325.48
2022-10-14T23:53:28.997Z,342.73
2022-10-14T23:55:30.718Z,465.65
2022-10-14T23:57:32.182Z,390.88
2022-10-14T23:59:33.672Z,369.25
